Time;durP1;ratioP1;P1;durP2;ratioP2;P2;SDS_P1;SDS_P2;PMS_P1;PMS_P2;Temp;Humidity;BMP_temperature;BMP_pressure;BME280_temperature;BME280_humidity;BME280_pressure;Samples;Min_cycle;Max_cycle;Signal;HPM_P1;HPM_P2
2021/08/16 00:00:32;;;;;;;16.65;3.30;;;;;;;18.01;79.99;101023.19;4989021;28;20030;-78
2021/08/16 00:03:10;;;;;;;;;;;;;;;;;;;;;
2021/08/16 00:05:42;;;;;;;21.77;4.07;;;;;;;18.05;80.06;101032.00;4996862;28;20031;-79
2021/08/16 00:08:19;;;;;;;16.42;3.67;;;;;;;18.06;80.15;101025.78;5009896;28;20512;-85
2021/08/16 00:11:07;;;;;;;22.98;3.75;;;;;;;18.05;80.20;101029.34;4987655;28;20046;-86
2021/08/16 00:13:33;;;;;;;23.90;4.85;;;;;;;18.04;80.25;101027.56;4995278;28;20428;-79
2021/08/16 00:16:04;;;;;;;23.42;4.88;;;;;;;18.04;79.90;101024.91;4995818;28;20030;-83
2021/08/16 00:18:50;;;;;;;16.10;3.72;;;;;;;18.04;79.97;101014.25;4995569;28;20537;-83
2021/08/16 00:21:16;;;;;;;19.15;4.03;;;;;;;18.03;80.28;101017.84;5006163;28;20427;-82
2021/08/16 00:23:44;;;;;;;17.30;3.75;;;;;;;18.01;80.36;101009.88;4996742;28;20022;-80
2021/08/16 00:26:10;;;;;;;18.75;4.15;;;;;;;18.01;80.53;101011.66;5009771;28;20484;-82
2021/08/16 00:28:35;;;;;;;25.35;4.00;;;;;;;18.03;79.80;101016.06;5008435;28;20018;-81
2021/08/16 00:31:01;;;;;;;17.85;3.75;;;;;;;18.05;79.63;101008.03;4991389;28;20054;-81
2021/08/16 00:33:27;;;;;;;23.95;4.07;;;;;;;18.05;80.00;101007.19;4993114;28;20392;-80
2021/08/16 00:35:52;;;;;;;20.05;3.13;;;;;;;18.06;79.67;101003.63;4990765;28;20493;-82
2021/08/16 00:38:18;;;;;;;14.43;3.72;;;;;;;18.06;79.79;101007.16;5011206;28;20038;-81
2021/08/16 00:40:44;;;;;;;16.95;3.28;;;;;;;18.06;80.05;101014.28;5011581;28;20471;-83
2021/08/16 00:43:09;;;;;;;17.45;3.22;;;;;;;18.03;80.00;101010.72;5012767;28;20034;-86
2021/08/16 00:45:39;;;;;;;14.75;4.07;;;;;;;18.02;80.17;101005.44;4999612;28;20019;-77
2021/08/16 00:48:05;;;;;;;23.40;3.88;;;;;;;18.03;80.00;101009.84;4994845;28;20042;-81
2021/08/16 00:50:30;;;;;;;19.10;3.53;;;;;;;18.06;79.82;101014.28;5005708;28;20033;-83
2021/08/16 00:53:21;;;;;;;18.15;4.07;;;;;;;18.03;80.15;101016.06;4995772;28;20022;-85
2021/08/16 00:55:48;;;;;;;16.17;2.70;;;;;;;18.02;80.34;101018.75;4997292;28;20489;-83
2021/08/16 00:58:13;;;;;;;17.83;4.22;;;;;;;18.00;80.29;101010.78;4997564;28;20019;-79
2021/08/16 01:00:40;;;;;;;12.68;3.45;;;;;;;17.98;80.61;101022.34;5001453;28;20045;-84
2021/08/16 01:03:25;;;;;;;20.02;3.75;;;;;;;17.97;80.63;101005.50;5002133;28;20125;-77
2021/08/16 01:06:11;;;;;;;23.52;3.83;;;;;;;17.97;80.69;101004.59;4996370;28;20125;-80
2021/08/16 01:08:39;;;;;;;22.83;5.18;;;;;;;17.93;80.54;101006.41;5010037;28;20034;-84
2021/08/16 01:11:07;;;;;;;24.90;4.55;;;;;;;17.90;81.31;101016.19;5003566;28;20048;-82
2021/08/16 01:13:33;;;;;;;21.25;3.80;;;;;;;17.92;81.05;101006.41;5028566;28;20117;-81
2021/08/16 01:16:19;;;;;;;16.02;3.60;;;;;;;17.92;80.47;101002.00;5017474;28;20449;-77
2021/08/16 01:18:45;;;;;;;16.58;3.60;;;;;;;17.97;80.56;101009.91;5009712;28;20380;-81
2021/08/16 01:21:14;;;;;;;17.73;4.00;;;;;;;17.97;80.32;101009.91;5003311;28;20027;-83
2021/08/16 01:24:02;;;;;;;14.45;2.67;;;;;;;18.00;80.36;101013.44;5005323;28;20078;-81
2021/08/16 01:26:34;;;;;;;12.45;3.05;;;;;;;18.00;80.38;101004.53;5011027;28;20510;-81
2021/08/16 01:29:02;;;;;;;22.50;3.40;;;;;;;18.02;80.03;101005.44;5001680;28;20043;-82
2021/08/16 01:31:35;;;;;;;21.42;3.47;;;;;;;18.07;80.02;101002.69;5008355;28;20064;-84
2021/08/16 01:34:05;;;;;;;21.17;4.35;;;;;;;18.06;79.83;101009.81;5008031;28;20029;-79
2021/08/16 01:36:51;;;;;;;16.15;3.92;;;;;;;18.08;79.79;101002.72;5011357;28;20033;-82
2021/08/16 01:39:17;;;;;;;16.83;3.45;;;;;;;18.05;79.67;101008.03;5009599;28;20034;-81
2021/08/16 01:41:42;;;;;;;15.52;4.80;;;;;;;18.11;79.49;101002.66;5012751;28;20388;-81
2021/08/16 01:44:30;;;;;;;16.60;4.90;;;;;;;18.06;80.02;100999.16;5012342;28;20053;-84
2021/08/16 01:46:56;;;;;;;13.88;2.97;;;;;;;18.06;79.88;100998.28;5011674;28;20146;-83
2021/08/16 01:49:41;;;;;;;17.25;3.15;;;;;;;18.00;80.25;100996.56;5010383;28;20066;-85
2021/08/16 01:52:29;;;;;;;15.43;3.35;;;;;;;18.01;79.79;100987.69;4995050;28;20042;-85
2021/08/16 01:54:54;;;;;;;19.08;3.00;;;;;;;18.01;79.85;100990.34;4982282;28;20515;-83
2021/08/16 01:57:19;;;;;;;19.42;3.60;;;;;;;18.01;79.97;100995.66;5007187;28;20030;-82
2021/08/16 01:59:51;;;;;;;19.15;4.00;;;;;;;18.05;79.70;100989.41;5010422;28;20034;-79
2021/08/16 02:02:19;;;;;;;17.25;2.78;;;;;;;18.07;79.92;100994.72;5008360;28;20058;-82
2021/08/16 02:05:05;;;;;;;13.02;2.97;;;;;;;18.08;79.94;101005.38;5012761;28;20030;-83
2021/08/16 02:07:30;;;;;;;12.05;2.60;;;;;;;18.09;79.68;100995.59;5011795;28;20025;-81
2021/08/16 02:09:56;;;;;;;14.68;3.22;;;;;;;18.09;79.22;100999.13;4999192;28;20042;-80
2021/08/16 02:12:21;;;;;;;21.48;3.40;;;;;;;18.09;79.50;100995.59;4994912;28;20386;-79
2021/08/16 02:14:52;;;;;;;9.05;2.53;;;;;;;18.12;78.95;100991.13;5005990;28;20054;-80
2021/08/16 02:17:40;;;;;;;11.63;2.50;;;;;;;18.13;79.05;100995.50;5012289;28;20360;-78
2021/08/16 02:20:26;;;;;;;13.73;2.92;;;;;;;18.15;78.98;100998.16;5021324;28;20049;-77
2021/08/16 02:22:51;;;;;;;15.18;2.95;;;;;;;18.18;79.31;100996.34;5004611;28;20038;-81
2021/08/16 02:25:17;;;;;;;12.50;2.92;;;;;;;18.17;79.36;100997.25;5002723;28;20040;-84
2021/08/16 02:27:56;;;;;;;14.45;2.85;;;;;;;18.15;79.36;100996.41;5015749;28;20056;-83
2021/08/16 02:30:21;;;;;;;13.35;2.60;;;;;;;18.15;79.70;100993.72;5012183;28;20034;-80
2021/08/16 02:32:50;;;;;;;13.80;3.03;;;;;;;18.13;79.96;100995.50;5008021;28;20042;-86
2021/08/16 02:35:35;;;;;;;13.90;2.97;;;;;;;18.17;79.45;101001.69;5020360;28;20022;-88
2021/08/16 02:38:06;;;;;;;8.00;2.53;;;;;;;18.12;79.85;101003.53;5012569;28;20040;-82
2021/08/16 02:40:31;;;;;;;20.00;3.78;;;;;;;18.09;79.72;101001.78;4999504;28;20401;-82
2021/08/16 02:42:57;;;;;;;13.55;3.30;;;;;;;18.06;79.75;101004.50;5003483;28;20025;-80
2021/08/16 02:45:23;;;;;;;17.95;3.10;;;;;;;18.05;80.14;101002.72;5021261;28;20032;-82
2021/08/16 02:47:54;;;;;;;15.55;3.10;;;;;;;18.01;80.21;100999.22;4999009;28;20019;-86
2021/08/16 02:50:20;;;;;;;19.58;5.28;;;;;;;18.00;80.40;101001.88;4993676;28;20045;-81
2021/08/16 02:52:53;;;;;;;10.52;3.00;;;;;;;18.00;80.82;101001.88;5018558;28;20026;-82
2021/08/16 02:55:21;;;;;;;15.25;2.67;;;;;;;17.98;80.87;101001.03;4999901;28;20051;-82
2021/08/16 02:57:47;;;;;;;14.50;2.80;;;;;;;17.95;81.14;101001.09;5005419;28;20023;-78
2021/08/16 03:00:14;;;;;;;14.82;2.70;;;;;;;17.98;81.05;101001.03;4992209;28;20014;-82
2021/08/16 03:03:00;;;;;;;12.60;3.05;;;;;;;17.98;81.22;100995.72;5010980;28;20022;-79
2021/08/16 03:05:25;;;;;;;14.95;2.95;;;;;;;17.97;81.54;100993.94;5009032;28;20022;-80
2021/08/16 03:07:51;;;;;;;15.40;2.90;;;;;;;17.93;81.57;100994.88;5010726;28;20041;-80
2021/08/16 03:10:16;;;;;;;17.98;3.50;;;;;;;17.93;81.84;100992.22;5010463;28;20030;-85
2021/08/16 03:12:42;;;;;;;12.98;2.50;;;;;;;17.90;81.87;100990.44;4998645;28;20018;-80
2021/08/16 03:15:27;;;;;;;16.25;3.47;;;;;;;17.90;81.69;100992.22;5010766;28;20025;-81
2021/08/16 03:17:53;;;;;;;14.23;2.92;;;;;;;17.89;81.55;100983.34;4995082;28;20022;-81
2021/08/16 03:20:18;;;;;;;12.98;2.65;;;;;;;17.86;81.83;100986.94;5010139;28;20097;-79
2021/08/16 03:22:44;;;;;;;10.10;2.60;;;;;;;17.84;81.87;100983.41;5009974;28;20038;-82
2021/08/16 03:25:10;;;;;;;14.15;2.70;;;;;;;17.87;81.83;100978.03;4993688;28;20042;-79
2021/08/16 03:27:56;;;;;;;12.65;2.78;;;;;;;17.86;81.86;100968.31;5010091;28;20033;-80
2021/08/16 03:30:21;;;;;;;18.05;4.10;;;;;;;17.83;82.29;100978.97;5011482;28;20034;-85
2021/08/16 03:32:48;;;;;;;8.30;2.67;;;;;;;17.78;82.42;100983.47;4993348;28;20052;-78
2021/08/16 03:35:30;;;;;;;13.82;2.90;;;;;;;17.77;82.38;100981.72;5008250;28;20030;-83
2021/08/16 03:37:56;;;;;;;13.80;2.75;;;;;;;17.73;82.57;100987.97;5010914;28;20042;-82
2021/08/16 03:40:21;;;;;;;12.55;2.50;;;;;;;17.75;82.43;100982.63;5020579;28;20026;-82
2021/08/16 03:42:47;;;;;;;11.25;2.47;;;;;;;17.73;82.84;100974.66;4994237;28;20488;-84
2021/08/16 03:45:20;;;;;;;9.93;2.10;;;;;;;17.74;83.27;100984.38;4993851;28;20022;-83
2021/08/16 03:47:46;;;;;;;10.55;2.55;;;;;;;17.72;83.77;100974.69;5009637;28;20034;-85
2021/08/16 03:50:12;;;;;;;13.75;2.60;;;;;;;17.68;83.63;100976.50;5012411;28;20037;-84
2021/08/16 03:52:44;;;;;;;14.65;3.10;;;;;;;17.66;83.64;100967.63;5010428;28;20384;-79
2021/08/16 03:55:09;;;;;;;15.48;2.67;;;;;;;17.63;83.20;100959.69;4997859;28;20511;-79
2021/08/16 03:57:35;;;;;;;18.13;3.33;;;;;;;17.64;83.57;100958.78;5005473;28;20026;-82
2021/08/16 04:00:00;;;;;;;19.13;4.57;;;;;;;17.65;83.29;100958.78;4998626;28;20019;-82
2021/08/16 04:02:31;;;;;;;12.85;3.08;;;;;;;17.64;83.44;100959.66;5006334;28;20056;-80
2021/08/16 04:04:57;;;;;;;13.48;2.50;;;;;;;17.65;83.26;100960.56;5014511;28;20496;-80
2021/08/16 04:07:22;;;;;;;11.63;3.03;;;;;;;17.61;83.91;100964.16;5002084;28;20034;-80
2021/08/16 04:09:50;;;;;;;10.40;2.63;;;;;;;17.61;84.41;100970.34;4999131;28;20026;-82
2021/08/16 04:12:35;;;;;;;12.95;2.55;;;;;;;17.53;84.92;100974.88;5007579;28;20026;-78
2021/08/16 04:15:22;;;;;;;16.65;3.30;;;;;;;17.44;86.19;100973.16;5009161;28;20109;-84
2021/08/16 04:18:21;;;;;;;;;;;;;;;;;;;;;
2021/08/16 04:24:26;;;;;;;15.63;3.58;;;;;;;16.81;91.49;100969.25;5004452;28;20045;-82
2021/08/16 04:26:51;;;;;;;13.50;3.33;;;;;;;16.72;92.65;100977.28;4996571;28;20038;-79
2021/08/16 04:29:26;;;;;;;12.32;3.50;;;;;;;16.63;93.30;100977.34;5012257;28;20400;-83
2021/08/16 04:31:57;;;;;;;20.60;4.20;;;;;;;16.58;93.75;100977.38;4994973;28;20181;-84
2021/08/16 04:34:45;;;;;;;12.35;3.40;;;;;;;16.56;93.82;100967.66;5001913;28;20037;-83
2021/08/16 04:37:50;;;;;;;10.90;3.20;;;;;;;16.52;94.76;100974.75;5012185;28;20030;-83
2021/08/16 04:40:46;;;;;;;12.63;3.35;;;;;;;16.48;94.73;100973.00;5023895;28;20030;-81
2021/08/16 04:43:21;;;;;;;14.70;3.60;;;;;;;16.48;95.02;100981.88;5005448;28;20072;-85
2021/08/16 04:46:07;;;;;;;18.85;3.40;;;;;;;16.45;95.40;100988.97;4997095;28;20067;-79
2021/08/16 04:48:33;;;;;;;10.32;3.47;;;;;;;16.44;95.48;100987.19;4999359;28;20116;-83
2021/08/16 04:51:01;;;;;;;8.55;2.95;;;;;;;16.40;95.29;100981.03;5008678;28;20030;-87
2021/08/16 04:53:27;;;;;;;16.73;3.45;;;;;;;16.36;95.02;100979.28;5011063;28;20128;-83
2021/08/16 04:55:55;;;;;;;14.40;3.38;;;;;;;16.28;94.48;100987.28;5011642;28;20022;-81
2021/08/16 04:58:21;;;;;;;12.15;2.83;;;;;;;16.24;94.35;100989.97;5011245;28;20063;-86
2021/08/16 05:00:46;;;;;;;10.60;2.35;;;;;;;16.17;93.94;100987.31;5005587;28;20026;-82
2021/08/16 05:03:12;;;;;;;6.25;2.35;;;;;;;16.13;94.33;100982.06;5018268;28;20035;-82
2021/08/16 05:05:45;;;;;;;8.55;2.80;;;;;;;16.12;94.00;100983.81;5012739;28;20022;-86
2021/08/16 05:08:13;;;;;;;9.50;2.13;;;;;;;16.11;93.91;100983.81;5008583;28;20365;-82
2021/08/16 05:10:40;;;;;;;7.93;2.35;;;;;;;16.06;93.97;100983.84;5011832;28;20029;-80
2021/08/16 05:13:08;;;;;;;6.18;2.85;;;;;;;16.04;94.47;100993.56;5014988;28;20041;-79
2021/08/16 05:15:33;;;;;;;10.10;2.50;;;;;;;16.05;94.48;100999.75;5023214;28;20049;-81
2021/08/16 05:18:02;;;;;;;5.82;2.85;;;;;;;16.06;94.58;100989.16;5011816;28;20448;-80
2021/08/16 05:20:27;;;;;;;9.40;3.20;;;;;;;16.05;94.94;100994.44;5010633;28;20034;-80
2021/08/16 05:22:53;;;;;;;8.73;2.85;;;;;;;16.01;94.69;100989.16;4998269;28;20031;-80
2021/08/16 05:25:20;;;;;;;7.88;2.72;;;;;;;15.96;94.24;101000.69;4996775;28;20048;-79
2021/08/16 05:28:05;;;;;;;4.82;2.47;;;;;;;15.94;94.61;101002.44;4977357;28;20362;-78
2021/08/16 05:30:30;;;;;;;6.65;3.00;;;;;;;15.95;94.93;101007.78;4997845;28;20026;-78
2021/08/16 05:33:36;;;;;;;10.18;3.80;;;;;;;15.92;95.38;101009.53;4998063;28;20046;-78
2021/08/16 05:36:01;;;;;;;7.43;3.70;;;;;;;15.86;95.50;101007.78;5010360;28;20026;-80
2021/08/16 05:38:26;;;;;;;21.02;4.88;;;;;;;15.81;96.04;101013.09;5005525;28;20037;-79
2021/08/16 05:40:52;;;;;;;19.40;5.18;;;;;;;15.80;95.95;101018.41;5009768;28;20419;-79
2021/08/16 05:43:17;;;;;;;12.82;5.00;;;;;;;15.80;95.80;101018.41;5011254;28;20030;-81
2021/08/16 05:45:43;;;;;;;10.55;3.65;;;;;;;15.74;95.22;101024.56;5011067;28;20113;-80
2021/08/16 05:48:08;;;;;;;8.60;3.60;;;;;;;15.70;95.11;101019.28;5011015;28;20086;-81
2021/08/16 05:50:34;;;;;;;15.05;3.85;;;;;;;15.62;94.03;101017.50;5011070;28;20030;-80
2021/08/16 05:52:59;;;;;;;13.32;4.40;;;;;;;15.64;94.45;101025.47;5012021;28;20062;-78
2021/08/16 05:55:25;;;;;;;14.38;3.33;;;;;;;15.62;94.05;101029.91;5004333;28;20495;-78
2021/08/16 05:57:50;;;;;;;11.02;3.45;;;;;;;15.64;93.54;101020.16;5002434;28;20121;-82
2021/08/16 06:00:21;;;;;;;12.05;3.75;;;;;;;15.57;93.30;101021.97;4993062;28;20039;-84
2021/08/16 06:02:47;;;;;;;9.57;3.15;;;;;;;15.60;93.14;101027.25;5002355;28;20038;-81
2021/08/16 06:05:13;;;;;;;13.38;3.80;;;;;;;15.63;93.08;101032.56;5003338;28;20052;-84
2021/08/16 06:07:38;;;;;;;10.50;3.10;;;;;;;15.70;93.60;101036.09;4999924;28;20053;-82
2021/08/16 06:10:24;;;;;;;12.85;3.20;;;;;;;15.71;91.91;101031.66;5003480;28;20026;-81
2021/08/16 06:12:52;;;;;;;18.98;4.00;;;;;;;15.68;92.18;101032.53;5013777;28;20034;-85
2021/08/16 06:15:42;;;;;;;15.95;4.25;;;;;;;15.65;92.73;101037.84;5008081;28;20399;-81
2021/08/16 06:18:28;;;;;;;12.63;4.40;;;;;;;15.61;92.70;101042.31;4983449;28;20041;-80
2021/08/16 06:20:54;;;;;;;15.60;4.10;;;;;;;15.65;93.61;101048.47;5001690;28;20041;-80
2021/08/16 06:23:20;;;;;;;16.58;4.10;;;;;;;15.64;92.97;101044.03;5006506;28;20117;-84
2021/08/16 06:25:46;;;;;;;12.95;3.40;;;;;;;15.61;91.88;101060.88;5006797;28;20096;-82
2021/08/16 06:28:11;;;;;;;10.23;3.70;;;;;;;15.49;92.75;101053.78;5008104;28;20034;-79
2021/08/16 06:30:37;;;;;;;12.40;4.75;;;;;;;15.43;93.29;101061.75;5007905;28;20409;-81
2021/08/16 06:33:05;;;;;;;11.38;4.35;;;;;;;15.30;93.92;101074.13;5003530;28;20551;-79
2021/08/16 06:35:38;;;;;;;16.83;4.55;;;;;;;15.22;94.31;101080.28;5009766;28;20415;-80
2021/08/16 06:38:09;;;;;;;15.07;4.60;;;;;;;15.20;94.84;101082.06;4985371;28;20118;-80
2021/08/16 06:40:56;;;;;;;12.77;4.72;;;;;;;15.25;94.97;101080.31;4996115;28;20038;-79
2021/08/16 06:43:26;;;;;;;17.80;4.47;;;;;;;15.23;95.14;101082.94;4988847;28;20034;-81
2021/08/16 06:45:52;;;;;;;14.27;4.43;;;;;;;15.19;94.19;101086.47;5000875;28;20026;-82
2021/08/16 06:48:17;;;;;;;13.57;4.13;;;;;;;15.13;94.06;101086.47;4998031;28;20037;-79
2021/08/16 06:50:44;;;;;;;23.60;5.22;;;;;;;15.08;93.91;101093.53;4993619;28;20075;-80
2021/08/16 06:53:14;;;;;;;12.05;4.22;;;;;;;15.06;93.55;101101.47;4992091;28;20047;-80
2021/08/16 06:55:47;;;;;;;9.07;4.18;;;;;;;15.03;94.02;101106.78;4991464;28;20026;-81
2021/08/16 06:58:13;;;;;;;12.18;3.97;;;;;;;15.02;93.43;101110.31;4991508;28;20032;-80
2021/08/16 07:00:49;;;;;;;9.77;3.63;;;;;;;14.99;93.38;101105.00;4994432;28;20428;-80
2021/08/16 07:03:24;;;;;;;12.20;3.42;;;;;;;14.91;92.09;101096.16;4975854;28;20044;-84
2021/08/16 07:05:50;;;;;;;7.50;3.42;;;;;;;14.91;92.41;101112.06;4996251;28;20038;-81
2021/08/16 07:08:16;;;;;;;10.73;4.13;;;;;;;14.92;92.21;101112.06;4990902;28;20038;-79
2021/08/16 07:10:45;;;;;;;12.38;3.70;;;;;;;14.90;92.49;101110.28;4991465;28;20049;-82
2021/08/16 07:13:13;;;;;;;12.43;3.83;;;;;;;14.92;91.79;101113.78;4984520;28;20046;-81
2021/08/16 07:15:39;;;;;;;12.00;3.90;;;;;;;15.01;92.76;101114.69;4986033;28;20117;-84
2021/08/16 07:18:10;;;;;;;13.52;4.15;;;;;;;15.19;93.19;101112.97;4989941;28;20788;-81
2021/08/16 07:20:36;;;;;;;8.30;3.58;;;;;;;15.46;91.56;101113.91;4990326;28;20127;-80
2021/08/16 07:23:01;;;;;;;11.48;3.70;;;;;;;15.62;90.93;101117.44;4993024;28;20038;-80
2021/08/16 07:25:48;;;;;;;11.82;4.10;;;;;;;15.64;89.15;101115.66;4986139;28;20158;-83
2021/08/16 07:28:36;;;;;;;16.05;3.75;;;;;;;15.58;88.60;101115.69;4970231;28;20066;-79
2021/08/16 07:31:03;;;;;;;10.85;4.07;;;;;;;15.58;88.26;101116.56;4985841;28;20482;-79
2021/08/16 07:33:29;;;;;;;8.05;3.30;;;;;;;15.69;87.93;101116.56;4986013;28;20145;-80
2021/08/16 07:35:54;;;;;;;10.57;3.42;;;;;;;15.96;88.30;101113.03;4984313;28;20120;-81
2021/08/16 07:38:20;;;;;;;9.98;3.20;;;;;;;16.19;85.65;101118.28;4988693;28;20037;-81
2021/08/16 07:40:46;;;;;;;11.40;3.13;;;;;;;16.30;84.69;101122.69;4986041;28;20032;-82
2021/08/16 07:43:20;;;;;;;12.70;3.33;;;;;;;16.28;83.46;101116.53;4989291;28;20062;-83
2021/08/16 07:45:48;;;;;;;15.50;4.18;;;;;;;16.15;84.08;101131.59;4986698;28;20031;-83
2021/08/16 07:48:18;;;;;;;10.18;3.42;;;;;;;16.08;83.23;101121.88;4987603;28;20476;-80
2021/08/16 07:50:51;;;;;;;9.95;3.35;;;;;;;16.06;80.76;101124.53;4991999;28;20030;-79
2021/08/16 07:53:20;;;;;;;9.60;3.65;;;;;;;16.00;79.36;101129.84;5004733;28;20034;-82
2021/08/16 07:55:47;;;;;;;9.93;4.18;;;;;;;15.92;78.86;101128.97;4990785;28;20061;-81
2021/08/16 07:58:13;;;;;;;16.40;5.20;;;;;;;15.92;81.13;101142.22;4991053;28;20040;-85
2021/08/16 08:00:39;;;;;;;10.77;4.43;;;;;;;15.94;82.52;101143.09;4989299;28;20026;-80
2021/08/16 08:03:04;;;;;;;15.98;4.47;;;;;;;15.95;80.29;101136.91;4989998;28;20038;-81
2021/08/16 08:05:30;;;;;;;8.93;4.10;;;;;;;15.95;80.52;101143.13;4994457;28;20018;-81
2021/08/16 08:08:03;;;;;;;11.85;4.55;;;;;;;16.06;79.51;101145.78;4989719;28;20038;-80
2021/08/16 08:10:32;;;;;;;18.98;5.00;;;;;;;16.22;81.19;101151.91;4976715;28;20041;-81
2021/08/16 08:12:58;;;;;;;17.75;4.72;;;;;;;16.28;79.64;101156.34;4989652;28;20038;-80
2021/08/16 08:15:23;;;;;;;14.23;5.57;;;;;;;16.37;78.38;101153.66;4994530;28;20028;-81
2021/08/16 08:17:58;;;;;;;12.65;4.85;;;;;;;16.40;76.78;101156.31;4992645;28;20157;-82
2021/08/16 08:20:41;;;;;;;18.58;5.50;;;;;;;16.52;74.80;101150.97;4988142;28;20034;-85
2021/08/16 08:23:08;;;;;;;17.20;6.30;;;;;;;16.74;74.76;101150.91;4991563;28;20042;-82
2021/08/16 08:25:43;;;;;;;13.30;5.70;;;;;;;16.92;74.33;101157.06;4977139;28;20363;-81
2021/08/16 08:28:12;;;;;;;20.55;6.43;;;;;;;16.90;75.97;101158.81;4990678;28;20034;-83
2021/08/16 08:30:44;;;;;;;13.30;6.30;;;;;;;16.91;74.90;101164.13;4990472;28;20505;-83
2021/08/16 08:33:15;;;;;;;21.87;6.13;;;;;;;16.97;75.24;101174.75;4989320;28;20042;-85
2021/08/16 08:35:46;;;;;;;12.07;5.47;;;;;;;16.95;73.49;101171.19;4989262;28;20026;-82
2021/08/16 08:38:12;;;;;;;17.08;5.88;;;;;;;17.03;73.87;101181.81;4990904;28;20047;-80
2021/08/16 08:40:39;;;;;;;13.60;5.75;;;;;;;17.17;75.53;101179.06;4988645;28;20034;-85
2021/08/16 08:43:08;;;;;;;14.52;5.47;;;;;;;17.12;74.86;101175.53;4989657;28;20042;-81
2021/08/16 08:45:34;;;;;;;14.95;6.00;;;;;;;16.89;74.64;101186.25;4970759;28;20030;-85
2021/08/16 08:48:00;;;;;;;13.50;6.32;;;;;;;16.55;75.00;101197.91;4991286;28;20038;-80
2021/08/16 08:50:51;;;;;;;11.93;5.68;;;;;;;16.31;78.08;101202.34;4988303;28;21483;-86
2021/08/16 08:53:16;;;;;;;20.98;7.40;;;;;;;15.93;77.62;101203.28;4994273;28;20048;-82
2021/08/16 08:55:44;;;;;;;14.43;6.35;;;;;;;15.80;80.10;101213.00;4992268;28;20025;-82
2021/08/16 08:58:13;;;;;;;15.80;7.28;;;;;;;15.55;82.97;101224.44;4990890;28;20034;-85
2021/08/16 09:00:49;;;;;;;19.42;8.07;;;;;;;15.34;83.02;101240.28;4985202;28;20022;-84
2021/08/16 09:03:45;;;;;;;20.80;8.32;;;;;;;15.10;84.43;101237.56;4989638;28;20054;-85
2021/08/16 09:06:11;;;;;;;18.42;8.02;;;;;;;14.97;85.64;101236.59;4992318;28;20149;-79
2021/08/16 09:08:37;;;;;;;20.60;7.70;;;;;;;14.92;85.94;101233.94;4991741;28;20030;-78
2021/08/16 09:11:11;;;;;;;17.23;9.18;;;;;;;14.95;86.13;101241.03;4990499;28;20372;-78
2021/08/16 09:13:36;;;;;;;22.75;9.07;;;;;;;15.04;86.83;101248.13;4990349;28;20046;-79
2021/08/16 09:16:12;;;;;;;19.30;8.30;;;;;;;15.12;85.22;101244.59;4989781;28;20041;-83
2021/08/16 09:18:37;;;;;;;16.75;8.00;;;;;;;15.30;85.61;101250.84;4988832;28;20030;-80
2021/08/16 09:21:08;;;;;;;21.20;8.18;;;;;;;15.56;85.16;101256.25;4991421;28;20365;-82
2021/08/16 09:23:44;;;;;;;23.27;7.80;;;;;;;15.90;82.93;101239.53;4989685;28;20038;-79
2021/08/16 09:26:27;;;;;;;20.63;7.55;;;;;;;16.39;80.94;101250.16;4988750;28;20034;-80
2021/08/16 09:29:18;;;;;;;11.30;6.90;;;;;;;16.86;79.07;101246.53;4986986;28;20090;-87
2021/08/16 09:32:05;;;;;;;18.50;6.28;;;;;;;17.02;75.72;101236.78;4988152;28;20075;-82
2021/08/16 09:34:32;;;;;;;13.40;6.72;;;;;;;17.61;75.51;101238.25;4989136;28;20100;-82
2021/08/16 09:37:34;;;;;;;14.52;6.47;;;;;;;17.98;70.33;101228.22;4986969;28;20018;-82
2021/08/16 09:40:25;;;;;;;11.98;4.93;;;;;;;18.04;69.94;101237.94;4990573;28;20038;-79
2021/08/16 09:42:54;;;;;;;12.15;5.18;;;;;;;18.11;70.59;101242.34;4987459;28;20027;-81
2021/08/16 09:45:51;;;;;;;13.23;3.92;;;;;;;18.44;68.78;101228.75;4993838;28;20095;-79
2021/08/16 09:48:40;;;;;;;10.32;4.05;;;;;;;18.61;66.90;101231.22;4989725;28;20257;-83
2021/08/16 09:51:13;;;;;;;14.05;4.20;;;;;;;18.53;67.74;101234.84;4985533;28;20034;-82
2021/08/16 09:53:52;;;;;;;9.00;3.30;;;;;;;18.32;67.97;101237.72;4987239;28;21441;-83
2021/08/16 09:56:27;;;;;;;15.63;3.83;;;;;;;18.10;67.32;101251.22;4991004;28;20496;-82
2021/08/16 09:58:53;;;;;;;13.57;4.03;;;;;;;17.73;70.03;101248.81;4988820;28;20033;-80
2021/08/16 10:01:19;;;;;;;9.82;3.90;;;;;;;17.67;71.09;101268.34;4984712;28;20034;-81
2021/08/16 10:04:05;;;;;;;13.70;4.35;;;;;;;17.49;73.58;101285.31;4990166;28;20053;-84
2021/08/16 10:06:34;;;;;;;13.30;4.03;;;;;;;17.35;71.14;101276.53;4987796;28;20110;-79
2021/08/16 10:09:00;;;;;;;8.82;4.47;;;;;;;17.49;71.96;101269.34;4990423;28;20039;-84
2021/08/16 10:11:25;;;;;;;12.30;5.07;;;;;;;17.66;71.51;101292.31;4988867;28;20018;-80
2021/08/16 10:14:03;;;;;;;8.77;3.83;;;;;;;18.24;67.94;101284.84;4989432;28;20037;-83
2021/08/16 10:16:36;;;;;;;12.20;3.67;;;;;;;18.96;67.10;101291.31;4987675;28;20071;-84
2021/08/16 10:19:29;;;;;;;7.13;3.75;;;;;;;19.30;63.79;101281.13;4988591;28;20050;-79
2021/08/16 10:22:01;;;;;;;9.63;4.45;;;;;;;18.76;66.61;101297.72;4985371;28;20057;-81
2021/08/16 10:24:29;;;;;;;11.95;3.50;;;;;;;18.22;69.19;101315.94;4971669;28;20594;-82
2021/08/16 10:26:54;;;;;;;7.47;3.58;;;;;;;17.76;68.94;101314.47;4987180;28;20537;-80
2021/08/16 10:29:20;;;;;;;6.97;3.13;;;;;;;17.41;73.22;101316.38;4984691;28;20031;-84
2021/08/16 10:31:52;;;;;;;9.15;4.25;;;;;;;17.40;72.11;101319.94;4994003;28;20381;-80
2021/08/16 10:34:55;;;;;;;15.40;4.40;;;;;;;17.26;72.29;101335.94;5006126;28;20139;-79
2021/08/16 10:38:01;;;;;;;10.02;3.90;;;;;;;16.57;77.49;101368.81;4996328;28;20397;-78
2021/08/16 10:40:26;;;;;;;7.25;3.75;;;;;;;16.09;77.83;101358.13;5006323;28;20049;-86
2021/08/16 10:43:31;;;;;;;12.30;4.25;;;;;;;15.69;79.57;101368.59;5005457;28;20038;-83
2021/08/16 10:45:57;;;;;;;8.05;4.43;;;;;;;15.66;81.64;101364.16;4987257;28;20026;-82
2021/08/16 10:48:31;;;;;;;13.13;4.60;;;;;;;15.94;82.76;101368.69;4989073;28;20029;-82
2021/08/16 10:51:23;;;;;;;10.50;4.72;;;;;;;16.13;81.46;101356.38;4977239;28;20057;-80
2021/08/16 10:54:09;;;;;;;11.75;4.00;;;;;;;16.27;79.22;101351.09;4989643;28;20034;-84
2021/08/16 10:56:34;;;;;;;10.52;4.15;;;;;;;16.28;77.94;101352.88;4984910;28;20038;-82
2021/08/16 10:59:01;;;;;;;11.15;4.00;;;;;;;16.37;78.50;101346.66;4987485;28;20082;-82
2021/08/16 11:01:30;;;;;;;10.10;3.65;;;;;;;16.52;78.17;101347.56;4986002;28;20396;-81
2021/08/16 11:04:01;;;;;;;10.95;3.40;;;;;;;16.55;77.51;101340.47;4990009;28;20188;-79
2021/08/16 11:06:28;;;;;;;6.75;2.95;;;;;;;16.60;75.27;101346.66;4989563;28;20561;-83
2021/08/16 11:09:20;;;;;;;11.80;3.28;;;;;;;16.60;75.58;101349.31;4988146;28;20030;-81
2021/08/16 11:11:53;;;;;;;10.75;4.15;;;;;;;16.66;75.67;101350.22;4989717;28;20038;-82
2021/08/16 11:14:23;;;;;;;15.48;4.35;;;;;;;16.63;76.51;101354.63;4988878;28;20041;-81
2021/08/16 11:16:52;;;;;;;11.98;3.53;;;;;;;16.53;76.74;101353.75;4987955;28;20125;-83
2021/08/16 11:19:45;;;;;;;10.80;3.55;;;;;;;16.51;76.26;101371.47;4985233;28;20025;-81
2021/08/16 11:22:13;;;;;;;19.75;4.97;;;;;;;16.45;75.94;101374.97;4987447;28;20489;-85
2021/08/16 11:24:48;;;;;;;12.68;3.80;;;;;;;16.22;79.40;101385.59;4988596;28;20040;-84
2021/08/16 11:27:47;;;;;;;12.82;3.22;;;;;;;15.79;78.65;101390.72;4986900;28;20128;-82
2021/08/16 11:30:16;;;;;;;15.32;3.35;;;;;;;15.41;79.62;101399.41;4990618;28;20038;-81
2021/08/16 11:32:44;;;;;;;7.90;2.42;;;;;;;15.31;79.12;101399.38;4984379;28;20106;-84
2021/08/16 11:35:12;;;;;;;12.38;3.08;;;;;;;15.43;79.87;101403.84;4986916;28;20082;-83
2021/08/16 11:37:48;;;;;;;15.40;3.22;;;;;;;15.80;79.51;101409.38;4988245;28;20571;-80
2021/08/16 11:40:17;;;;;;;10.60;2.97;;;;;;;15.98;76.97;101397.94;4972153;28;20038;-83
2021/08/16 11:42:43;;;;;;;13.05;3.78;;;;;;;16.37;77.22;101411.28;4987660;28;20131;-80
2021/08/16 11:45:14;;;;;;;12.93;3.38;;;;;;;16.57;73.59;101408.66;4988304;28;20029;-81
2021/08/16 11:47:43;;;;;;;12.20;3.00;;;;;;;16.61;73.23;101405.13;4971644;28;20080;-78